Time;durP1;ratioP1;P1;durP2;ratioP2;P2;SDS_P1;SDS_P2;PMS_P1;PMS_P2;Temp;Humidity;BMP_temperature;BMP_pressure;BME280_temperature;BME280_humidity;BME280_pressure;Samples;Min_cycle;Max_cycle;Signal;HPM_P1;HPM_P2
2024/03/18 00:00:35;;;;;;;235.73;72.40;;;;;;;;;;5010856;28;20416;-45
2024/03/18 00:03:01;;;;;;;237.10;72.05;;;;;;;;;;5010738;28;20899;-45
2024/03/18 00:05:27;;;;;;;230.15;66.72;;;;;;;;;;5009808;28;20173;-45
2024/03/18 00:07:53;;;;;;;233.30;66.78;;;;;;;;;;5010768;28;20187;-45
2024/03/18 00:10:19;;;;;;;230.87;64.27;;;;;;;;;;5010648;28;20559;-46
2024/03/18 00:12:45;;;;;;;232.17;67.17;;;;;;;;;;5010805;28;20420;-46
2024/03/18 00:15:14;;;;;;;244.85;76.93;;;;;;;;;;5010413;28;20767;-45
2024/03/18 00:17:40;;;;;;;231.95;67.80;;;;;;;;;;5010202;28;20200;-45
2024/03/18 00:20:13;;;;;;;230.63;66.03;;;;;;;;;;5010728;28;20649;-46
2024/03/18 00:22:40;;;;;;;232.32;66.47;;;;;;;;;;5010800;28;20192;-45
2024/03/18 00:25:06;;;;;;;231.70;66.45;;;;;;;;;;5010312;28;20653;-46
2024/03/18 00:27:32;;;;;;;232.20;67.90;;;;;;;;;;5010738;28;20206;-44
2024/03/18 00:29:58;;;;;;;231.53;68.60;;;;;;;;;;5010941;28;20233;-45
2024/03/18 00:32:24;;;;;;;232.82;67.40;;;;;;;;;;5010774;28;20978;-45
2024/03/18 00:34:51;;;;;;;229.50;65.50;;;;;;;;;;5010765;28;20185;-46
2024/03/18 00:37:17;;;;;;;233.85;69.97;;;;;;;;;;5010312;28;20831;-46
2024/03/18 00:39:43;;;;;;;230.97;66.30;;;;;;;;;;5010567;28;20180;-45
2024/03/18 00:42:09;;;;;;;234.45;68.25;;;;;;;;;;5010569;28;20489;-45
2024/03/18 00:44:35;;;;;;;231.27;65.65;;;;;;;;;;5014137;28;20188;-45
2024/03/18 00:47:02;;;;;;;230.18;66.50;;;;;;;;;;5013945;28;20202;-45
2024/03/18 00:49:29;;;;;;;230.10;65.93;;;;;;;;;;5014335;28;20177;-45
2024/03/18 00:51:55;;;;;;;230.35;66.93;;;;;;;;;;5014409;28;20181;-46
2024/03/18 00:54:21;;;;;;;233.77;68.43;;;;;;;;;;5014257;28;20649;-46
2024/03/18 00:56:47;;;;;;;234.47;70.10;;;;;;;;;;5014190;28;20210;-45
2024/03/18 00:59:14;;;;;;;236.98;71.30;;;;;;;;;;5014088;28;20973;-45
2024/03/18 01:01:40;;;;;;;234.20;69.60;;;;;;;;;;5014094;28;20246;-46
2024/03/18 01:04:06;;;;;;;231.10;66.30;;;;;;;;;;5014186;28;20177;-45
2024/03/18 01:06:32;;;;;;;235.98;71.68;;;;;;;;;;5013601;28;20446;-45
2024/03/18 01:08:58;;;;;;;232.77;68.10;;;;;;;;;;5013853;28;20578;-44
2024/03/18 01:11:24;;;;;;;236.00;71.18;;;;;;;;;;5013877;28;20442;-45
2024/03/18 01:13:50;;;;;;;233.48;67.57;;;;;;;;;;5014128;28;20176;-45
2024/03/18 01:16:17;;;;;;;229.80;64.65;;;;;;;;;;5013689;28;20210;-45
2024/03/18 01:18:43;;;;;;;236.40;70.20;;;;;;;;;;5013949;28;20177;-44
2024/03/18 01:21:10;;;;;;;232.75;65.53;;;;;;;;;;5013682;28;20554;-45
2024/03/18 01:23:36;;;;;;;238.30;74.15;;;;;;;;;;5013587;28;20645;-45
2024/03/18 01:26:02;;;;;;;235.18;70.55;;;;;;;;;;5013393;28;20196;-45
2024/03/18 01:28:29;;;;;;;232.15;65.72;;;;;;;;;;5013467;28;20272;-45
2024/03/18 01:30:56;;;;;;;228.55;62.63;;;;;;;;;;5013695;28;20239;-45
2024/03/18 01:33:22;;;;;;;229.27;66.03;;;;;;;;;;5013501;28;20643;-45
2024/03/18 01:35:49;;;;;;;233.20;68.43;;;;;;;;;;5013211;28;20238;-45
2024/03/18 01:38:15;;;;;;;229.13;62.05;;;;;;;;;;5013159;28;20791;-45
2024/03/18 01:40:43;;;;;;;232.38;66.90;;;;;;;;;;5013967;28;20573;-45
2024/03/18 01:43:10;;;;;;;232.45;64.78;;;;;;;;;;5013302;28;20233;-45
2024/03/18 01:45:36;;;;;;;231.02;62.28;;;;;;;;;;5013238;28;20189;-45
2024/03/18 01:48:02;;;;;;;232.32;68.70;;;;;;;;;;5013553;28;20172;-46
2024/03/18 01:50:28;;;;;;;232.97;67.40;;;;;;;;;;5013020;28;20172;-44
2024/03/18 01:52:54;;;;;;;229.23;62.47;;;;;;;;;;5013070;28;20423;-44
2024/03/18 01:55:20;;;;;;;234.63;66.63;;;;;;;;;;5011723;28;20409;-45
2024/03/18 01:57:47;;;;;;;233.95;68.30;;;;;;;;;;5013043;28;20978;-45
2024/03/18 02:00:23;;;;;;;232.98;66.57;;;;;;;;;;5013014;28;20183;-45
2024/03/18 02:02:50;;;;;;;228.32;61.72;;;;;;;;;;5012182;28;20745;-45
2024/03/18 02:05:16;;;;;;;237.77;70.28;;;;;;;;;;5011115;28;20658;-44
2024/03/18 02:07:42;;;;;;;230.83;64.90;;;;;;;;;;5012378;28;20235;-45
2024/03/18 02:10:11;;;;;;;230.87;65.43;;;;;;;;;;5012535;28;20819;-44
2024/03/18 02:12:37;;;;;;;231.30;67.43;;;;;;;;;;5009469;28;20404;-45
2024/03/18 02:15:04;;;;;;;228.98;64.22;;;;;;;;;;5012459;28;20263;-45
2024/03/18 02:17:30;;;;;;;226.98;63.17;;;;;;;;;;5012293;28;20207;-44
2024/03/18 02:19:56;;;;;;;227.65;62.05;;;;;;;;;;5012544;28;20181;-45
2024/03/18 02:22:22;;;;;;;230.32;63.67;;;;;;;;;;5010123;28;20276;-44
2024/03/18 02:24:48;;;;;;;232.73;68.38;;;;;;;;;;5012340;28;20251;-44
2024/03/18 02:27:14;;;;;;;235.03;71.37;;;;;;;;;;5012404;28;20744;-45
2024/03/18 02:29:40;;;;;;;233.00;65.95;;;;;;;;;;5012672;28;20534;-44
2024/03/18 02:32:07;;;;;;;228.88;61.58;;;;;;;;;;5012467;28;20184;-44
2024/03/18 02:34:35;;;;;;;230.52;64.38;;;;;;;;;;5012232;28;20206;-44
2024/03/18 02:37:01;;;;;;;235.00;69.97;;;;;;;;;;5012332;28;20606;-44
2024/03/18 02:39:27;;;;;;;228.00;62.73;;;;;;;;;;5012227;28;20177;-45
2024/03/18 02:41:55;;;;;;;227.35;62.88;;;;;;;;;;5012096;28;20990;-45
2024/03/18 02:44:21;;;;;;;229.20;62.15;;;;;;;;;;5012070;28;20184;-44
2024/03/18 02:46:47;;;;;;;232.82;66.60;;;;;;;;;;5011760;28;20192;-46
2024/03/18 02:49:13;;;;;;;230.73;65.40;;;;;;;;;;5011969;28;20172;-46
2024/03/18 02:51:40;;;;;;;232.77;65.85;;;;;;;;;;5011968;28;20196;-45
2024/03/18 02:54:06;;;;;;;231.75;65.90;;;;;;;;;;5012247;28;20247;-46
2024/03/18 02:56:32;;;;;;;234.02;68.80;;;;;;;;;;5011540;28;20192;-45
2024/03/18 02:58:58;;;;;;;233.35;69.28;;;;;;;;;;5011956;28;20234;-45
2024/03/18 03:01:25;;;;;;;230.73;66.53;;;;;;;;;;5012107;28;20664;-44
2024/03/18 03:03:51;;;;;;;232.18;67.60;;;;;;;;;;5011855;28;20403;-44
2024/03/18 03:06:18;;;;;;;231.20;65.57;;;;;;;;;;5010948;28;20245;-46
2024/03/18 03:08:44;;;;;;;229.25;61.63;;;;;;;;;;5011822;28;20181;-45
2024/03/18 03:11:10;;;;;;;228.23;60.95;;;;;;;;;;5011871;28;20632;-46
2024/03/18 03:13:36;;;;;;;229.27;62.50;;;;;;;;;;5011916;28;20176;-45
2024/03/18 03:16:02;;;;;;;232.67;67.67;;;;;;;;;;5011286;28;20438;-46
2024/03/18 03:18:28;;;;;;;231.30;67.87;;;;;;;;;;5011363;28;20411;-45
2024/03/18 03:20:54;;;;;;;233.27;68.60;;;;;;;;;;5011280;28;20415;-44
2024/03/18 03:23:21;;;;;;;231.45;66.90;;;;;;;;;;5011431;28;20458;-44
2024/03/18 03:25:48;;;;;;;233.57;69.75;;;;;;;;;;5011160;28;20235;-46
2024/03/18 03:28:14;;;;;;;228.45;64.13;;;;;;;;;;5011292;28;20180;-45
2024/03/18 03:30:40;;;;;;;231.57;67.53;;;;;;;;;;5011393;28;20180;-45
2024/03/18 03:33:06;;;;;;;234.23;69.30;;;;;;;;;;5011333;28;20656;-44
2024/03/18 03:35:32;;;;;;;230.87;64.93;;;;;;;;;;5011049;28;20176;-45
2024/03/18 03:37:58;;;;;;;232.93;67.70;;;;;;;;;;5011358;28;20459;-46
2024/03/18 03:40:24;;;;;;;231.93;65.23;;;;;;;;;;5011404;28;20411;-45
2024/03/18 03:42:50;;;;;;;231.37;65.77;;;;;;;;;;5011128;28;20463;-45
2024/03/18 03:45:16;;;;;;;240.10;72.73;;;;;;;;;;5010881;28;20472;-45
2024/03/18 03:47:43;;;;;;;233.07;66.70;;;;;;;;;;5010898;28;20477;-45
2024/03/18 03:50:10;;;;;;;230.93;63.90;;;;;;;;;;5011189;28;20178;-44
2024/03/18 03:52:36;;;;;;;227.57;61.33;;;;;;;;;;5011111;28;20179;-45
2024/03/18 03:55:02;;;;;;;233.75;70.05;;;;;;;;;;5010966;28;20176;-46
2024/03/18 03:57:28;;;;;;;233.63;69.50;;;;;;;;;;5010781;28;20207;-44
2024/03/18 03:59:54;;;;;;;228.47;63.43;;;;;;;;;;5011316;28;20415;-45
2024/03/18 04:02:20;;;;;;;230.77;64.63;;;;;;;;;;5010723;28;20455;-44
2024/03/18 04:04:46;;;;;;;232.53;64.27;;;;;;;;;;5010372;28;20415;-44
2024/03/18 04:07:14;;;;;;;231.88;66.10;;;;;;;;;;5010298;28;20439;-45
2024/03/18 04:09:40;;;;;;;231.05;64.47;;;;;;;;;;5010861;28;20164;-45
2024/03/18 04:12:06;;;;;;;234.00;68.60;;;;;;;;;;5010777;28;20659;-45
2024/03/18 04:14:32;;;;;;;235.20;72.03;;;;;;;;;;5010834;28;20787;-46
2024/03/18 04:16:59;;;;;;;233.73;70.60;;;;;;;;;;5010304;28;20943;-45
2024/03/18 04:19:26;;;;;;;234.80;72.03;;;;;;;;;;5013980;28;20183;-45
2024/03/18 04:21:52;;;;;;;234.35;69.00;;;;;;;;;;5015270;28;20189;-45
2024/03/18 04:24:18;;;;;;;233.53;68.30;;;;;;;;;;5014994;28;20173;-44
2024/03/18 04:26:45;;;;;;;236.97;73.37;;;;;;;;;;5014564;28;20428;-45
2024/03/18 04:29:11;;;;;;;228.77;63.53;;;;;;;;;;5014680;28;20399;-44
2024/03/18 04:31:37;;;;;;;236.03;71.17;;;;;;;;;;5014449;28;20598;-45
2024/03/18 04:34:03;;;;;;;231.27;65.00;;;;;;;;;;5014657;28;20412;-44
2024/03/18 04:36:29;;;;;;;233.35;69.22;;;;;;;;;;5014172;28;20541;-44
2024/03/18 04:38:55;;;;;;;232.57;67.77;;;;;;;;;;5014607;28;20702;-45
2024/03/18 04:41:21;;;;;;;233.20;67.57;;;;;;;;;;5014364;28;20666;-45
2024/03/18 04:43:47;;;;;;;231.43;67.57;;;;;;;;;;5014287;28;20407;-44
2024/03/18 04:46:13;;;;;;;233.37;68.63;;;;;;;;;;5014216;28;20197;-44
2024/03/18 04:48:39;;;;;;;228.75;63.20;;;;;;;;;;5014331;28;20786;-45
2024/03/18 04:51:05;;;;;;;229.37;63.27;;;;;;;;;;5014444;28;20176;-44
2024/03/18 04:53:31;;;;;;;234.20;69.40;;;;;;;;;;5014146;28;20933;-44
2024/03/18 04:55:57;;;;;;;234.23;71.50;;;;;;;;;;5013978;28;20445;-44
2024/03/18 04:58:23;;;;;;;228.57;64.83;;;;;;;;;;5014072;28;20426;-45
2024/03/18 05:00:50;;;;;;;230.43;66.00;;;;;;;;;;5014025;28;20691;-45
2024/03/18 05:03:16;;;;;;;234.00;71.72;;;;;;;;;;5013872;28;20462;-45
2024/03/18 05:05:42;;;;;;;235.07;71.50;;;;;;;;;;5013863;28;20214;-44
2024/03/18 05:08:08;;;;;;;231.87;66.77;;;;;;;;;;5013935;28;20907;-45
2024/03/18 05:10:33;;;;;;;234.77;71.20;;;;;;;;;;5014187;28;20921;-45
2024/03/18 05:13:01;;;;;;;230.87;65.10;;;;;;;;;;5014011;28;20990;-45
2024/03/18 05:15:27;;;;;;;231.40;65.22;;;;;;;;;;5014328;28;20500;-45
2024/03/18 05:17:54;;;;;;;232.48;66.05;;;;;;;;;;5013724;28;20222;-45
2024/03/18 05:20:20;;;;;;;235.23;71.43;;;;;;;;;;5013818;28;20256;-45
2024/03/18 05:22:47;;;;;;;233.67;69.93;;;;;;;;;;5013687;28;20300;-45
2024/03/18 05:25:14;;;;;;;233.82;67.63;;;;;;;;;;5013550;28;20896;-45
2024/03/18 05:27:40;;;;;;;229.77;65.32;;;;;;;;;;5013389;28;20614;-45
2024/03/18 05:30:06;;;;;;;234.65;70.43;;;;;;;;;;5013465;28;20260;-44
2024/03/18 05:32:32;;;;;;;235.80;72.20;;;;;;;;;;5013528;28;20172;-45
2024/03/18 05:34:59;;;;;;;237.02;71.70;;;;;;;;;;5013862;28;20547;-44
2024/03/18 05:37:28;;;;;;;233.68;70.55;;;;;;;;;;5013259;28;20220;-44
2024/03/18 05:39:54;;;;;;;232.45;68.45;;;;;;;;;;5013500;28;20173;-45
2024/03/18 05:42:20;;;;;;;238.20;74.78;;;;;;;;;;5013193;28;20482;-45
2024/03/18 05:44:46;;;;;;;232.70;67.47;;;;;;;;;;5013465;28;20177;-45
2024/03/18 05:47:12;;;;;;;238.03;75.63;;;;;;;;;;5012832;28;20515;-45
2024/03/18 05:49:38;;;;;;;228.98;64.25;;;;;;;;;;5013179;28;20691;-45
2024/03/18 05:52:04;;;;;;;232.40;67.37;;;;;;;;;;5013264;28;20276;-44
2024/03/18 05:54:30;;;;;;;233.88;69.38;;;;;;;;;;5013032;28;20451;-45
2024/03/18 05:56:56;;;;;;;229.37;62.27;;;;;;;;;;5012893;28;20196;-44
2024/03/18 05:59:22;;;;;;;232.47;65.53;;;;;;;;;;5013142;28;20892;-44
2024/03/18 06:01:48;;;;;;;233.03;68.47;;;;;;;;;;5012915;28;20556;-45
2024/03/18 06:04:14;;;;;;;239.73;72.07;;;;;;;;;;5011838;28;20426;-44
2024/03/18 06:06:40;;;;;;;237.80;71.43;;;;;;;;;;5011171;28;20214;-45
2024/03/18 06:09:07;;;;;;;229.68;65.03;;;;;;;;;;5012090;28;20520;-45
2024/03/18 06:11:34;;;;;;;233.77;67.28;;;;;;;;;;5011819;28;20183;-45
2024/03/18 06:14:01;;;;;;;234.57;68.35;;;;;;;;;;5011962;28;20196;-45
2024/03/18 06:16:28;;;;;;;233.10;66.55;;;;;;;;;;5011884;28;20304;-45
2024/03/18 06:18:54;;;;;;;238.25;74.70;;;;;;;;;;5012748;28;20555;-45
2024/03/18 06:21:27;;;;;;;234.85;70.63;;;;;;;;;;5012884;28;20226;-44
2024/03/18 06:23:55;;;;;;;234.05;68.28;;;;;;;;;;5012555;28;20672;-45
2024/03/18 06:26:22;;;;;;;236.88;72.65;;;;;;;;;;5012118;28;20197;-45
2024/03/18 06:28:48;;;;;;;231.98;65.97;;;;;;;;;;5012313;28;20173;-45
2024/03/18 06:31:14;;;;;;;233.70;65.88;;;;;;;;;;5012311;28;20652;-45
2024/03/18 06:33:41;;;;;;;238.43;71.95;;;;;;;;;;5012347;28;20178;-45
2024/03/18 06:36:11;;;;;;;236.85;72.43;;;;;;;;;;5012081;28;20690;-45
2024/03/18 06:38:37;;;;;;;233.52;65.97;;;;;;;;;;5012246;28;20253;-45
2024/03/18 06:41:04;;;;;;;232.95;66.18;;;;;;;;;;5011971;28;20252;-45
2024/03/18 06:43:30;;;;;;;231.70;66.03;;;;;;;;;;5010091;28;20217;-44
2024/03/18 06:45:56;;;;;;;238.23;74.75;;;;;;;;;;5011673;28;20196;-45
2024/03/18 06:48:22;;;;;;;238.77;75.67;;;;;;;;;;5012002;28;20302;-45
2024/03/18 06:50:48;;;;;;;235.07;69.40;;;;;;;;;;5011667;28;20444;-45
2024/03/18 06:53:14;;;;;;;236.03;70.50;;;;;;;;;;5011871;28;20426;-45
2024/03/18 06:55:43;;;;;;;237.03;75.33;;;;;;;;;;5011469;28;21575;-44
2024/03/18 06:58:10;;;;;;;236.60;72.03;;;;;;;;;;5011781;28;20848;-45
2024/03/18 07:00:36;;;;;;;233.95;68.45;;;;;;;;;;5008252;28;20210;-45
2024/03/18 07:03:02;;;;;;;238.68;73.78;;;;;;;;;;5011786;28;20563;-44
2024/03/18 07:05:28;;;;;;;233.07;66.03;;;;;;;;;;5011221;28;20170;-45
2024/03/18 07:07:55;;;;;;;235.70;69.78;;;;;;;;;;5011712;28;20238;-45
2024/03/18 07:10:21;;;;;;;234.73;68.68;;;;;;;;;;5011790;28;20167;-45
2024/03/18 07:12:48;;;;;;;237.13;70.00;;;;;;;;;;5013383;28;20175;-45
2024/03/18 07:15:16;;;;;;;235.73;68.28;;;;;;;;;;5011082;28;20177;-45
2024/03/18 07:17:43;;;;;;;238.27;72.00;;;;;;;;;;5011164;28;20198;-45
2024/03/18 07:20:10;;;;;;;236.82;69.57;;;;;;;;;;5011211;28;20704;-45
2024/03/18 07:22:37;;;;;;;237.10;69.43;;;;;;;;;;5007905;28;20294;-45
2024/03/18 07:25:04;;;;;;;235.80;68.95;;;;;;;;;;5006766;28;20220;-45
2024/03/18 07:27:30;;;;;;;234.38;66.20;;;;;;;;;;5011171;28;20229;-45
2024/03/18 07:29:56;;;;;;;235.35;69.30;;;;;;;;;;5011075;28;20178;-45
2024/03/18 07:32:24;;;;;;;235.55;68.75;;;;;;;;;;5011708;28;20175;-45
2024/03/18 07:34:50;;;;;;;238.38;70.93;;;;;;;;;;5011469;28;20240;-45
2024/03/18 07:37:17;;;;;;;237.90;70.05;;;;;;;;;;5010691;28;20207;-45
2024/03/18 07:39:43;;;;;;;236.68;71.18;;;;;;;;;;5010970;28;20186;-45
2024/03/18 07:42:11;;;;;;;236.07;69.07;;;;;;;;;;5010954;28;20612;-45
2024/03/18 07:44:37;;;;;;;239.57;75.20;;;;;;;;;;5010816;28;20405;-45
2024/03/18 07:47:03;;;;;;;238.10;73.57;;;;;;;;;;5010769;28;20205;-45
2024/03/18 07:49:29;;;;;;;239.50;71.40;;;;;;;;;;5006164;28;20441;-45
2024/03/18 07:51:56;;;;;;;238.47;70.30;;;;;;;;;;5010781;28;20210;-45
2024/03/18 07:54:22;;;;;;;238.73;70.82;;;;;;;;;;5010464;28;20552;-45
2024/03/18 07:56:48;;;;;;;239.33;70.67;;;;;;;;;;5010672;28;20282;-45
2024/03/18 07:59:14;;;;;;;237.73;70.13;;;;;;;;;;5010759;28;20411;-45
2024/03/18 08:01:40;;;;;;;238.90;69.70;;;;;;;;;;5010687;28;20433;-45
2024/03/18 08:04:06;;;;;;;246.03;80.63;;;;;;;;;;5010676;28;20772;-45
2024/03/18 08:06:32;;;;;;;244.43;77.77;;;;;;;;;;5009608;28;20962;-45
2024/03/18 08:08:58;;;;;;;240.63;74.03;;;;;;;;;;5009059;28;20422;-45
2024/03/18 08:11:24;;;;;;;240.60;71.60;;;;;;;;;;5010650;28;20407;-45
2024/03/18 08:13:50;;;;;;;237.57;71.60;;;;;;;;;;5010515;28;20412;-45
2024/03/18 08:16:16;;;;;;;242.77;74.93;;;;;;;;;;5010263;28;20533;-45
2024/03/18 08:18:42;;;;;;;243.07;76.03;;;;;;;;;;5010270;28;20474;-45
2024/03/18 08:21:08;;;;;;;247.70;81.77;;;;;;;;;;5011048;28;20180;-45
2024/03/18 08:23:34;;;;;;;240.90;72.33;;;;;;;;;;5010739;28;20454;-45
2024/03/18 08:26:00;;;;;;;243.50;74.33;;;;;;;;;;5010507;28;20435;-45
2024/03/18 08:28:26;;;;;;;242.50;74.50;;;;;;;;;;5010399;28;20446;-45
2024/03/18 08:30:52;;;;;;;240.07;71.33;;;;;;;;;;5010730;28;20414;-45
2024/03/18 08:33:18;;;;;;;245.93;76.93;;;;;;;;;;5010334;28;20416;-45
2024/03/18 08:35:45;;;;;;;249.00;82.30;;;;;;;;;;5010281;28;20514;-45
2024/03/18 08:38:11;;;;;;;242.90;79.18;;;;;;;;;;5010640;28;20425;-45
2024/03/18 08:40:37;;;;;;;248.10;83.20;;;;;;;;;;5010587;28;20188;-45
2024/03/18 08:43:03;;;;;;;242.00;76.33;;;;;;;;;;5010609;28;20556;-45
2024/03/18 08:45:28;;;;;;;249.83;86.73;;;;;;;;;;5010206;28;20794;-45
2024/03/18 08:47:54;;;;;;;254.07;90.10;;;;;;;;;;5010075;28;20415;-45
2024/03/18 08:50:20;;;;;;;244.97;79.77;;;;;;;;;;5010325;28;20904;-45
2024/03/18 08:52:47;;;;;;;244.87;78.37;;;;;;;;;;5010644;28;20551;-45
2024/03/18 08:55:12;;;;;;;252.67;86.03;;;;;;;;;;5010152;28;20415;-45
2024/03/18 08:57:39;;;;;;;250.90;91.13;;;;;;;;;;5010361;28;20457;-46
2024/03/18 09:00:10;;;;;;;248.17;83.73;;;;;;;;;;5010469;28;20418;-45
2024/03/18 09:02:37;;;;;;;249.00;85.63;;;;;;;;;;5002921;28;20464;-46
2024/03/18 09:05:03;;;;;;;250.50;90.80;;;;;;;;;;5012763;28;20417;-45
2024/03/18 09:07:29;;;;;;;244.30;83.07;;;;;;;;;;5013741;28;20448;-45
2024/03/18 09:09:55;;;;;;;249.53;85.80;;;;;;;;;;5014028;28;20404;-45
2024/03/18 09:12:21;;;;;;;245.63;84.03;;;;;;;;;;5013845;28;20800;-45
2024/03/18 09:14:47;;;;;;;249.27;88.33;;;;;;;;;;5013587;28;20422;-45
2024/03/18 09:17:13;;;;;;;246.97;84.63;;;;;;;;;;5013575;28;20443;-45
2024/03/18 09:19:42;;;;;;;247.70;84.20;;;;;;;;;;5013954;28;20443;-45
2024/03/18 09:22:08;;;;;;;248.50;86.80;;;;;;;;;;5012987;28;20542;-45
2024/03/18 09:24:35;;;;;;;242.27;77.10;;;;;;;;;;5013565;28;20522;-45
2024/03/18 09:27:04;;;;;;;247.80;83.00;;;;;;;;;;5013181;28;20482;-45
2024/03/18 09:29:30;;;;;;;243.77;77.30;;;;;;;;;;5013283;28;20415;-45
2024/03/18 09:31:56;;;;;;;245.57;79.67;;;;;;;;;;5013392;28;20421;-45
2024/03/18 09:34:22;;;;;;;243.90;78.40;;;;;;;;;;5011649;28;20415;-45
2024/03/18 09:36:48;;;;;;;242.80;78.53;;;;;;;;;;5013121;28;20435;-45
2024/03/18 09:39:14;;;;;;;240.73;74.87;;;;;;;;;;5013339;28;20407;-45
2024/03/18 09:41:40;;;;;;;247.17;81.50;;;;;;;;;;5012594;28;20412;-45
2024/03/18 09:44:12;;;;;;;246.93;79.43;;;;;;;;;;5011737;28;20411;-45
2024/03/18 09:46:38;;;;;;;241.57;75.03;;;;;;;;;;5012983;28;20450;-45
2024/03/18 09:49:06;;;;;;;242.57;75.60;;;;;;;;;;5013352;28;20951;-45
2024/03/18 09:51:35;;;;;;;239.70;74.13;;;;;;;;;;5013112;28;20772;-45
2024/03/18 09:54:02;;;;;;;243.73;78.47;;;;;;;;;;5013314;28;20194;-45
2024/03/18 09:56:28;;;;;;;244.13;77.07;;;;;;;;;;5013156;28;20616;-45
2024/03/18 09:58:54;;;;;;;243.23;78.07;;;;;;;;;;5013130;28;20947;-45
2024/03/18 10:01:21;;;;;;;242.30;77.20;;;;;;;;;;5012933;28;20775;-45
2024/03/18 10:03:50;;;;;;;246.07;81.13;;;;;;;;;;5012827;28;20451;-45
2024/03/18 10:06:17;;;;;;;247.13;85.30;;;;;;;;;;5012212;28;20455;-46
2024/03/18 10:08:43;;;;;;;251.10;89.03;;;;;;;;;;5012460;28;20401;-45
2024/03/18 10:11:15;;;;;;;255.77;95.77;;;;;;;;;;5012488;28;20413;-45
2024/03/18 10:13:41;;;;;;;245.17;85.47;;;;;;;;;;5010068;28;20413;-45
2024/03/18 10:16:09;;;;;;;250.23;91.13;;;;;;;;;;5011848;28;20428;-45
2024/03/18 10:18:35;;;;;;;247.90;86.40;;;;;;;;;;5012814;28;20427;-46
2024/03/18 10:21:02;;;;;;;247.93;87.00;;;;;;;;;;5012748;28;20412;-45
2024/03/18 10:23:28;;;;;;;253.17;95.20;;;;;;;;;;5013348;28;20562;-46
2024/03/18 10:25:55;;;;;;;249.03;86.63;;;;;;;;;;5011930;28;20482;-46
2024/03/18 10:28:21;;;;;;;248.47;86.77;;;;;;;;;;5012312;28;20408;-45
2024/03/18 10:30:47;;;;;;;250.17;92.73;;;;;;;;;;5012452;28;20445;-46
2024/03/18 10:33:16;;;;;;;250.27;89.33;;;;;;;;;;5012309;28;20418;-46
2024/03/18 10:35:44;;;;;;;242.47;80.00;;;;;;;;;;5010735;28;20462;-46
2024/03/18 10:38:12;;;;;;;248.40;85.50;;;;;;;;;;5011933;28;20918;-46
2024/03/18 10:40:39;;;;;;;244.53;81.67;;;;;;;;;;5012525;28;20415;-46
2024/03/18 10:43:09;;;;;;;245.90;82.77;;;;;;;;;;5012298;28;21146;-46
2024/03/18 10:45:47;;;;;;;246.37;84.10;;;;;;;;;;5011997;28;20422;-46
2024/03/18 10:48:16;;;;;;;248.07;88.23;;;;;;;;;;5011813;28;20439;-45
2024/03/18 10:50:44;;;;;;;249.17;89.87;;;;;;;;;;5011714;28;20417;-46
2024/03/18 10:53:28;;;;;;;245.97;85.70;;;;;;;;;;5012143;28;20466;-45
2024/03/18 10:55:56;;;;;;;247.10;85.77;;;;;;;;;;5011739;28;20427;-46
2024/03/18 10:58:23;;;;;;;247.00;85.87;;;;;;;;;;5011809;28;20449;-45
2024/03/18 11:00:50;;;;;;;242.43;79.47;;;;;;;;;;5012150;28;20779;-46
2024/03/18 11:03:16;;;;;;;245.97;85.27;;;;;;;;;;5011536;28;20890;-46
2024/03/18 11:05:50;;;;;;;245.17;83.67;;;;;;;;;;5011754;28;20479;-46
2024/03/18 11:08:20;;;;;;;243.52;84.00;;;;;;;;;;5011505;28;20514;-46
2024/03/18 11:10:47;;;;;;;242.97;80.00;;;;;;;;;;5011636;28;20278;-46
2024/03/18 11:13:14;;;;;;;244.13;83.70;;;;;;;;;;5011445;28;20786;-46
2024/03/18 11:15:41;;;;;;;246.57;83.50;;;;;;;;;;5011029;28;20840;-46
2024/03/18 11:18:08;;;;;;;247.53;86.37;;;;;;;;;;5011549;28;20783;-46
2024/03/18 11:20:45;;;;;;;247.40;86.50;;;;;;;;;;5011522;28;20413;-46
2024/03/18 11:23:18;;;;;;;244.90;83.97;;;;;;;;;;5011412;28;21000;-46
2024/03/18 11:25:51;;;;;;;246.77;84.93;;;;;;;;;;5011593;28;20518;-46
2024/03/18 11:28:17;;;;;;;251.87;92.17;;;;;;;;;;5011627;28;20907;-46
2024/03/18 11:30:44;;;;;;;248.03;85.93;;;;;;;;;;5012200;28;20525;-46
2024/03/18 11:33:11;;;;;;;254.23;98.53;;;;;;;;;;5011392;28;20472;-46
2024/03/18 11:35:38;;;;;;;252.37;93.07;;;;;;;;;;5011047;28;20415;-45
2024/03/18 11:38:05;;;;;;;250.57;90.33;;;;;;;;;;5011123;28;20414;-46
2024/03/18 11:40:36;;;;;;;248.97;88.33;;;;;;;;;;5011578;28;20457;-45
2024/03/18 11:43:02;;;;;;;252.47;92.20;;;;;;;;;;5011031;28;20470;-46
2024/03/18 11:45:28;;;;;;;252.37;93.97;;;;;;;;;;5010838;28;20429;-46
2024/03/18 11:48:08;;;;;;;251.37;93.63;;;;;;;;;;5010936;28;20410;-46
2024/03/18 11:50:41;;;;;;;254.87;99.93;;;;;;;;;;5011078;28;20493;-46
2024/03/18 11:53:08;;;;;;;253.77;100.43;;;;;;;;;;5009801;28;20910;-47
2024/03/18 11:55:43;;;;;;;250.80;93.93;;;;;;;;;;5010748;28;20846;-46
2024/03/18 11:58:12;;;;;;;253.33;101.07;;;;;;;;;;5010934;28;20414;-46
2024/03/18 12:00:38;;;;;;;254.97;100.00;;;;;;;;;;5011172;28;20768;-45
2024/03/18 12:03:11;;;;;;;251.20;93.77;;;;;;;;;;5010710;28;20970;-46
2024/03/18 12:05:38;;;;;;;254.63;95.73;;;;;;;;;;5009304;28;20426;-46
2024/03/18 12:08:06;;;;;;;254.37;98.40;;;;;;;;;;5010603;28;20410;-46
2024/03/18 12:10:32;;;;;;;252.00;95.13;;;;;;;;;;5010424;28;20413;-46
2024/03/18 12:12:58;;;;;;;246.33;84.23;;;;;;;;;;5009657;28;20414;-45
2024/03/18 12:15:24;;;;;;;250.93;92.50;;;;;;;;;;5010438;28;20416;-45
2024/03/18 12:17:51;;;;;;;247.67;85.97;;;;;;;;;;5010596;28;20475;-46
2024/03/18 12:20:23;;;;;;;249.33;89.03;;;;;;;;;;5010664;28;20475;-46
2024/03/18 12:22:59;;;;;;;248.00;88.07;;;;;;;;;;5010802;28;20461;-46
2024/03/18 12:31:00;;;;;;;244.90;87.37;;;;;;;;;;5006372;28;20416;-45
2024/03/18 12:33:30;;;;;;;244.07;82.27;;;;;;;;;;5010654;28;20442;-47
2024/03/18 12:35:56;;;;;;;247.50;87.30;;;;;;;;;;5010343;28;20434;-45
2024/03/18 12:38:22;;;;;;;251.33;92.97;;;;;;;;;;5010541;28;20460;-46
2024/03/18 12:40:48;;;;;;;248.03;89.60;;;;;;;;;;5014301;28;20419;-46
2024/03/18 12:43:14;;;;;;;254.53;98.83;;;;;;;;;;5014156;28;20465;-46
2024/03/18 12:45:41;;;;;;;270.10;106.67;;;;;;;;;;5012660;28;20418;-46
2024/03/18 12:48:09;;;;;;;246.80;86.97;;;;;;;;;;5014515;28;20540;-45
2024/03/18 12:50:36;;;;;;;248.60;91.47;;;;;;;;;;5014205;28;20437;-46
2024/03/18 12:53:02;;;;;;;246.07;84.50;;;;;;;;;;5014484;28;20777;-45
2024/03/18 12:55:28;;;;;;;249.27;87.87;;;;;;;;;;5013803;28;20921;-46
2024/03/18 12:57:54;;;;;;;247.10;87.80;;;;;;;;;;5014354;28;20911;-46
2024/03/18 13:00:21;;;;;;;247.77;90.93;;;;;;;;;;5014071;28;20407;-46
2024/03/18 13:02:47;;;;;;;243.93;82.17;;;;;;;;;;5013874;28;20481;-46
2024/03/18 13:05:13;;;;;;;257.37;97.63;;;;;;;;;;5012310;28;20415;-45
2024/03/18 13:07:41;;;;;;;250.87;94.67;;;;;;;;;;5013531;28;20437;-47
2024/03/18 13:10:07;;;;;;;249.93;90.83;;;;;;;;;;5013993;28;20413;-45
2024/03/18 13:12:34;;;;;;;250.03;93.63;;;;;;;;;;5013724;28;20798;-46
2024/03/18 13:15:01;;;;;;;248.90;92.80;;;;;;;;;;5013865;28;20414;-45
2024/03/18 13:17:31;;;;;;;251.57;93.43;;;;;;;;;;5013678;28;20453;-45
2024/03/18 13:19:57;;;;;;;247.17;87.53;;;;;;;;;;5013844;28;20411;-46
2024/03/18 13:22:23;;;;;;;245.00;84.10;;;;;;;;;;5013557;28;20548;-47
2024/03/18 13:24:49;;;;;;;248.47;86.80;;;;;;;;;;5013524;28;20855;-45
2024/03/18 13:27:14;;;;;;;248.87;89.67;;;;;;;;;;5013205;28;20433;-46
2024/03/18 13:29:41;;;;;;;248.63;88.50;;;;;;;;;;5012494;28;20432;-46
2024/03/18 13:32:09;;;;;;;243.47;85.03;;;;;;;;;;5013672;28;20475;-46
2024/03/18 13:34:35;;;;;;;244.63;84.73;;;;;;;;;;5013383;28;20417;-45
2024/03/18 13:37:02;;;;;;;247.87;85.60;;;;;;;;;;5013057;28;20436;-45
2024/03/18 13:39:28;;;;;;;246.97;87.13;;;;;;;;;;5013034;28;20411;-45
2024/03/18 13:41:58;;;;;;;245.83;84.93;;;;;;;;;;5013293;28;20422;-46
2024/03/18 13:44:24;;;;;;;248.33;87.80;;;;;;;;;;5013386;28;20418;-46
2024/03/18 13:46:50;;;;;;;245.00;83.90;;;;;;;;;;5013278;28;20442;-46
2024/03/18 13:49:16;;;;;;;242.20;80.33;;;;;;;;;;5013328;28;20792;-46
2024/03/18 13:51:42;;;;;;;245.83;87.00;;;;;;;;;;5010879;28;20411;-46
2024/03/18 13:54:08;;;;;;;245.00;84.43;;;;;;;;;;5012776;28;20901;-45
2024/03/18 13:56:34;;;;;;;242.57;80.07;;;;;;;;;;5012654;28;20435;-46
2024/03/18 13:59:00;;;;;;;249.37;92.20;;;;;;;;;;5013056;28;20457;-46
2024/03/18 14:01:27;;;;;;;244.97;83.87;;;;;;;;;;5012867;28;20419;-46
2024/03/18 14:03:53;;;;;;;245.47;89.37;;;;;;;;;;5012957;28;20579;-45
2024/03/18 14:06:19;;;;;;;242.40;80.83;;;;;;;;;;5011797;28;20538;-46